Aéroport international Pierre-Elliott-Trudeau de Montréal

CYUL

18 août 2022

Temps Code Temps Temp. Vue Base cloud Vent METAR/SPECI
3:44 pm
V
73 °F 15 mi 8.000 ft 010° 010° 9 kt METAR CYUL 181944Z 01009KT 15SM -SHRA FEW045 OVC080 23/13 A2980 RMK CU1AC7 CVCTV CLD EMBD SLP094 DENSITY ALT 1200FT
3:20 pm
V
73 °F 15 mi 7.500 ft 350° 350° 11 kt METAR CYUL 181920Z 35011KT 15SM FEW045 OVC075 23/13 A2980 RMK CU1AC8 CU TR SLP092 DENSITY ALT 1300FT
3:00 pm
V
73 °F 30 mi 7.500 ft 020° 020° 12 kt METAR CYUL 181900Z 02012KT 30SM -SHRA FEW045 OVC075 23/13 A2980 RMK CU1AC7 CVCTV CLD EMBD SLP092 DENSITY ALT 1200FT
2:35 pm
V
73 °F 15 mi 6.500 ft 350° 350° 10 - 18 kt METAR CYUL 181835Z 35010G18KT 15SM FEW040 OVC065 23/12 A2980 RMK CU1SC7 SLP094 DENSITY ALT 1200FT
2:17 pm
V
75 °F 15 mi 8.500 ft 010° 010° 13 - 20 kt METAR CYUL 181817Z 01013G20KT 15SM -SHRA FEW045 OVC085 24/13 A2980 RMK CU1AC7 SLP094 DENSITY ALT 1300FT
2:00 pm
V
75 °F 15 mi 7.000 ft 350° 350° 12 - 22 kt METAR CYUL 181800Z 35012G22KT 15SM FEW045 OVC070 24/12 A2980 RMK CU1AC7 SLP093 DENSITY ALT 1400FT
1:00 pm
V
75 °F 15 mi 7.500 ft 360° 360° 11 - 18 kt METAR CYUL 181700Z 36011G18KT 15SM FEW045 BKN075 OVC200 24/11 A2980 RMK CU1AC7CI1 CU TR SLP094 DENSITY ALT 1300FT
12:00 pm
V
75 °F 15 mi 9.500 ft 320° 320° 8 kt METAR CYUL 181600Z 32008KT 300V020 15SM FEW040 OVC095 24/12 A2981 RMK CU1AC7 CF ASOCTD SLP095 DENSITY ALT 1300FT
11:00 am
V
73 °F 15 mi 9.500 ft 010° 010° 6 kt METAR CYUL 181500Z 01006KT 340V050 15SM FEW040 OVC095 23/12 A2981 RMK CF1AC8 CF TR SLP097 DENSITY ALT 1200FT
10:00 am
V
72 °F 15 mi 12.000 ft 360° 360° 7 kt METAR CYUL 181400Z 36007KT 15SM OVC120 22/13 A2982 RMK AC8 SLP100 DENSITY ALT 1100FT
9:00 am
V
68 °F 15 mi 10.000 ft 300° 300° 6 kt METAR CYUL 181300Z 30006KT 15SM FEW030 OVC100 20/14 A2983 RMK CF1AC8 CF TR SLP103 DENSITY ALT 900FT
8:00 am
V
66 °F 15 mi 10.000 ft 300° 300° 6 kt METAR CYUL 181200Z 30006KT 15SM OVC100 19/15 A2984 RMK AC8 SLP105 DENSITY ALT 800FT
7:00 am
V
64 °F 15 mi 10.000 ft 300° 300° 6 kt METAR CYUL 181100Z 30006KT 15SM FEW030 OVC100 18/16 A2984 RMK CU1AC8 CU TR SLP106 DENSITY ALT 700FT
6:00 am
V
64 °F 15 mi 10.000 ft 290° 290° 3 kt METAR CYUL 181000Z 29003KT 280V350 15SM -SHRA FEW030 OVC100 18/16 A2984 RMK CU1AC8 CU TR SLP107 DENSITY ALT 700FT
5:00 am
V
64 °F 15 mi 10.000 ft 300° 300° 3 kt METAR CYUL 180900Z 30003KT 15SM BKN100 18/16 A2984 RMK AC8 SLP108 DENSITY ALT 700FT
4:00 am
V
66 °F 15 mi 12.000 ft Var 000° 0 kt METAR CYUL 180800Z 00000KT 15SM FEW090 BKN120 19/15 A2986 RMK AC2AC5 SLP113 DENSITY ALT 700FT
3:00 am
V
66 °F 15 mi 10.000 ft 320° 320° 5 kt METAR CYUL 180700Z 32005KT 15SM BKN100 BKN150 19/15 A2988 RMK AC6AC1 SLP119 DENSITY ALT 700FT
2:00 am
V
66 °F 15 mi 12.000 ft 310° 310° 8 kt METAR CYUL 180600Z 31008KT 15SM FEW080 BKN120 BKN180 19/16 A2989 RMK AC1AC6AC1 AC TR SLP124 DENSITY ALT 700FT
1:00 am
V
68 °F 15 mi 14.000 ft 320° 320° 4 kt METAR CYUL 180500Z 32004KT 15SM BKN140 BKN190 20/15 A2992 RMK AC5AC2 SLP132 DENSITY ALT 700FT
12:00 am
V
68 °F 15 mi 11.000 ft 340° 340° 4 kt METAR CYUL 180400Z 34004KT 15SM BKN110 BKN180 20/15 A2994 RMK AC5AC2 SLP140 DENSITY ALT 800FT

17 août 2022

Temps Code Temps Temp. Vue Base cloud Vent METAR/SPECI
11:00 pm
V
68 °F 15 mi 16.000 ft 350° 350° 4 kt METAR CYUL 180300Z 35004KT 15SM BKN160 BKN220 20/15 A2996 RMK AC5CI2 SLP147 DENSITY ALT 800FT
10:00 pm
V
70 °F 15 mi 22.000 ft 350° 350° 9 kt METAR CYUL 180200Z 35009KT 15SM FEW110 FEW180 BKN220 21/15 A2998 RMK AC2AC1CI3 SLP153 DENSITY ALT 800FT
9:00 pm
V
73 °F 15 mi 11.000 ft 360° 360° 10 - 16 kt METAR CYUL 180100Z 36010G16KT 15SM OVC110 23/14 A2998 RMK AC8 SLP154 DENSITY ALT 1000FT
8:00 pm
V
73 °F 15 mi 9.500 ft 040° 040° 13 kt METAR CYUL 180000Z 04013KT 15SM FEW050 OVC095 23/12 A2997 RMK CF1AC8 CF TR SLP152 DENSITY ALT 1100FT
7:00 pm
V
75 °F 15 mi 17.000 ft 050° 050° 12 kt METAR CYUL 172300Z 05012KT 15SM FEW050 SCT080 BKN170 OVC250 24/12 A2997 RMK CU1AC3AC3CS2 CU TR SLP152 DENSITY ALT 1200FT
6:00 pm
V
77 °F 15 mi 24.000 ft 050° 050° 12 - 20 kt METAR CYUL 172200Z 05012G20KT 15SM FEW050 FEW180 OVC240 25/12 A2998 RMK CU1AC2CS6 CU TR CI ASOCTD SLP154 DENSITY ALT 1300FT
5:00 pm
V
81 °F 15 mi 20.000 ft 050° 050° 15 - 20 kt METAR CYUL 172100Z 05015G20KT 15SM FEW056 OVC200 27/11 A2999 RMK CU2CS6 SLP156 DENSITY ALT 1400FT
4:00 pm
V
79 °F 15 mi 25.000 ft 070° 070° 12 - 18 kt METAR CYUL 172000Z 07012G18KT 15SM FEW045 FEW180 OVC250 26/15 A3000 RMK CU1AC1CS7 CU TR SLP161 DENSITY ALT 1400FT
3:00 pm
V
79 °F 15 mi 24.000 ft 030° 030° 14 - 19 kt METAR CYUL 171900Z 03014G19KT 15SM FEW045 FEW150 OVC240 26/15 A3002 RMK CU1AC2CS6 CU TR SLP166 DENSITY ALT 1400FT
2:00 pm
V
79 °F 15 mi 24.000 ft 030° 030° 11 kt METAR CYUL 171800Z 03011KT 360V060 15SM FEW030 SCT180 OVC240 26/16 A3003 RMK CU1AC3CS5 CU TR CI ASOCTD SLP172 DENSITY ALT 1300FT
1:00 pm
V
77 °F 15 mi 20.000 ft 010° 010° 11 kt METAR CYUL 171700Z 01011KT 15SM FEW130 OVC200 25/16 A3005 RMK AC2CS6 SLP179 DENSITY ALT 1200FT
12:00 pm
V
73 °F 15 mi 18.000 ft 010° 010° 7 kt METAR CYUL 171600Z 01007KT 15SM SCT130 BKN180 BKN250 23/16 A3007 RMK AC4AC2CI1 SLP185 DENSITY ALT 900FT
11:28 am
V
70 °F 15 mi 6.500 ft 010° 010° 10 kt METAR CYUL 171528Z 01010KT 15SM -SHRA BKN065 OVC100 21/16 A3009 RMK SC6AC2 CVCTV CLD EMBD SLP190 DENSITY ALT 700FT
11:00 am
V
70 °F 15 mi 9.500 ft 010° 010° 9 kt METAR CYUL 171500Z 01009KT 15SM SCT070 OVC095 21/15 A3010 RMK AC3AC5 SLP194 DENSITY ALT 700FT
10:00 am
V
68 °F 15 mi 13.000 ft 010° 010° 9 kt METAR CYUL 171400Z 01009KT 15SM FEW065 SCT100 OVC130 20/15 A3010 RMK CF1AC2AC5 SLP196 DENSITY ALT 600FT
9:00 am
V
66 °F 30 mi 18.000 ft 020° 020° 10 kt METAR CYUL 171300Z 02010KT 30SM FEW110 SCT120 BKN180 OVC250 19/15 A3011 RMK ACC1AC2AC2CS3 SLP197 DENSITY ALT 500FT
8:00 am
V
64 °F 30 mi 25.000 ft 020° 020° 10 kt METAR CYUL 171200Z 02010KT 30SM FEW130 OVC250 18/14 A3011 RMK AC1CS7 CC ASOCTD SLP198 DENSITY ALT 400FT
7:00 am
V
64 °F 30 mi 25.000 ft 030° 030° 11 kt METAR CYUL 171100Z 03011KT 30SM FEW130 OVC250 18/14 A3011 RMK AC1CS7 SLP197 DENSITY ALT 300FT
6:00 am
V
64 °F 30 mi 25.000 ft 020° 020° 10 kt METAR CYUL 171000Z 02010KT 30SM FEW130 OVC250 18/13 A3010 RMK AC1CS7 SLP194 DENSITY ALT 300FT
5:00 am
V
64 °F 15 mi 25.000 ft 030° 030° 10 kt METAR CYUL 170900Z 03010KT 15SM FEW130 OVC250 18/11 A3009 RMK AC1CS8 AC TR SLP190 DENSITY ALT 400FT
4:00 am
V
66 °F 15 mi 25.000 ft 030° 030° 11 kt METAR CYUL 170800Z 03011KT 15SM SCT130 BKN250 19/11 A3009 RMK AC3CI3 SLP190 DENSITY ALT 400FT
3:00 am
V
66 °F 15 mi 25.000 ft 030° 030° 8 kt METAR CYUL 170700Z 03008KT 15SM SCT130 BKN250 19/13 A3009 RMK AC4CI2 SLP190 DENSITY ALT 400FT
2:00 am
V
68 °F 15 mi 25.000 ft 010° 010° 8 kt METAR CYUL 170600Z 01008KT 15SM SCT120 BKN250 20/15 A3008 RMK AC4CI2 SLP189 DENSITY ALT 600FT
1:00 am
V
68 °F 15 mi 13.000 ft 040° 040° 9 kt METAR CYUL 170500Z 04009KT 15SM BKN130 OVC250 20/15 A3009 RMK AC5CI3 SLP191 DENSITY ALT 600FT
12:00 am
V
70 °F 15 mi 12.000 ft 050° 050° 9 kt METAR CYUL 170400Z 05009KT 15SM BKN120 OVC250 21/15 A3009 RMK AC5CI3 SLP192 DENSITY ALT 700FT

16 août 2022

Temps Code Temps Temp. Vue Base cloud Vent METAR/SPECI
11:00 pm
V
73 °F 15 mi 25.000 ft 040° 040° 12 kt METAR CYUL 170300Z 04012KT 15SM SCT110 SCT130 OVC250 23/15 A3009 RMK AC3AC1CI4 SLP190 DENSITY ALT 900FT
10:00 pm
V
73 °F 15 mi 11.000 ft 020° 020° 9 kt METAR CYUL 170200Z 02009KT 15SM BKN110 OVC250 23/16 A3009 RMK AC7CI1 SLP192 DENSITY ALT 900FT
9:00 pm
V
73 °F 15 mi 11.000 ft 030° 030° 7 kt METAR CYUL 170100Z 03007KT 15SM OVC110 23/16 A3009 RMK AC8 SLP191 DENSITY ALT 900FT
8:00 pm
V
73 °F 30 mi 11.000 ft 020° 020° 6 kt METAR CYUL 170000Z 02006KT 30SM FEW045 BKN110 BKN250 23/15 A3008 RMK CU1AC6CI1 CU TR SLP189 DENSITY ALT 1000FT
7:00 pm
V
73 °F 30 mi 23.000 ft 090° 090° 6 kt METAR CYUL 162300Z 09006KT 30SM FEW050 SCT120 BKN230 23/15 A3008 RMK CU1AC4CI3 CU TR SLP189 DENSITY ALT 1000FT
6:00 pm
V
73 °F 15 mi 12.000 ft 060° 060° 7 kt METAR CYUL 162200Z 06007KT 15SM FEW030TCU BKN120 OVC240 23/15 A3008 RMK TCU1AC5CI2 SLP189 DENSITY ALT 1000FT
5:54 pm
V
73 °F 15 mi 12.000 ft 050° 050° 9 - 15 kt METAR CYUL 162154Z 05009G15KT 15SM FEW030TCU BKN120 OVC240 23/14 A3008 RMK TCU1AC4CI3 SLP187 DENSITY ALT 1000FT
5:37 pm
V
75 °F 15 mi 9.000 ft 040° 040° 9 kt METAR CYUL 162137Z 04009KT 15SM FEW025TCU BKN090 OVC250 24/15 A3008 RMK TCU2ACC4CI2 SLP186 DENSITY ALT 1000FT
5:00 pm
V
75 °F 15 mi 10.000 ft 080° 080° 14 - 22 kt METAR CYUL 162100Z 08014G22KT 15SM FEW025TCU BKN100 OVC250 24/13 A3008 RMK TCU2ACC4CI2 SLP187 DENSITY ALT 1100FT
4:00 pm
V
81 °F 15 mi 6.200 ft 050° 050° 7 kt METAR CYUL 162000Z 05007KT 15SM BKN062 BKN090 BKN250 27/14 A3008 RMK SC6AC1CI1 CI TR SLP186 DENSITY ALT 1400FT
3:00 pm
V
81 °F 15 mi 9.500 ft 070° 070° 8 kt METAR CYUL 161900Z 07008KT 030V120 15SM SCT065 BKN095 BKN250 27/15 A3008 RMK CU4AC1CI2 SLP186 DENSITY ALT 1400FT
2:00 pm
V
82 °F 15 mi 24.000 ft Var Var 5 kt METAR CYUL 161800Z VRB05KT 15SM FEW045 BKN240 28/17 A3009 RMK CU1CI6 SLP191 DENSITY ALT 1500FT
1:00 pm
V
81 °F 15 mi 25.000 ft 050° 050° 7 kt METAR CYUL 161700Z 05007KT 020V090 15SM FEW045 FEW090 BKN250 27/16 A3010 RMK CU1AC1CI5 AC TR SLP193 DENSITY ALT 1300FT
12:00 pm
V
77 °F 15 mi 25.000 ft 040° 040° 9 kt METAR CYUL 161600Z 04009KT 15SM FEW045 SCT090 BKN250 25/16 A3010 RMK CU1AC3CI4 CU TR SLP195 DENSITY ALT 1200FT
11:00 am
V
75 °F 15 mi 25.000 ft 060° 060° 8 kt METAR CYUL 161500Z 06008KT 15SM FEW045 SCT070 BKN250 24/16 A3010 RMK CF1AC3CI3 CF TR SLP195 DENSITY ALT 1000FT
Données plus anciennes

Nous et des tiers suivons ton comportement sur Internet sur notre site Web à l'aide de cookies. Si tu continues, nous supposons que tu acceptes notre politique en matière de cookies. Apprendre plus